Time;durP1;ratioP1;P1;durP2;ratioP2;P2;SDS_P1;SDS_P2;PMS_P1;PMS_P2;Temp;Humidity;BMP_temperature;BMP_pressure;BME280_temperature;BME280_humidity;BME280_pressure;Samples;Min_cycle;Max_cycle;Signal;HPM_P1;HPM_P2
2021/04/03 00:00:13;;;;;;;34.70;5.55;;;5.50;82.00;;;;;;5059256;28;20032;-77
2021/04/03 00:02:39;;;;;;;32.70;4.55;;;5.50;82.10;;;;;;5058758;28;20210;-80
2021/04/03 00:05:07;;;;;;;31.13;3.47;;;5.50;82.20;;;;;;5059640;28;20405;-79
2021/04/03 00:07:33;;;;;;;30.85;4.03;;;5.50;82.10;;;;;;5058380;28;20035;-78
2021/04/03 00:09:59;;;;;;;31.67;4.10;;;5.50;82.40;;;;;;5040743;28;20036;-82
2021/04/03 00:12:25;;;;;;;35.25;4.85;;;5.40;82.40;;;;;;5057606;28;20431;-79
2021/04/03 00:14:51;;;;;;;39.50;5.10;;;5.40;82.50;;;;;;5025086;28;20032;-79
2021/04/03 00:17:16;;;;;;;36.42;5.18;;;5.30;82.80;;;;;;5041799;28;20032;-81
2021/04/03 00:19:42;;;;;;;31.13;4.30;;;5.30;82.70;;;;;;5040152;28;20036;-79
2021/04/03 00:22:08;;;;;;;29.63;4.43;;;5.20;82.90;;;;;;5057279;28;20471;-79
2021/04/03 00:24:34;;;;;;;36.97;5.45;;;5.20;83.00;;;;;;5056255;28;20029;-81
2021/04/03 00:27:00;;;;;;;44.70;5.60;;;5.10;83.50;;;;;;5040199;28;20032;-78
2021/04/03 00:29:26;;;;;;;34.45;4.65;;;5.10;83.60;;;;;;5057289;28;20066;-81
2021/04/03 00:31:51;;;;;;;33.53;6.07;;;5.10;83.60;;;;;;5056866;28;20039;-77
2021/04/03 00:34:17;;;;;;;33.88;5.18;;;5.00;83.80;;;;;;5057059;28;20478;-78
2021/04/03 00:36:43;;;;;;;32.50;4.70;;;5.00;84.10;;;;;;5058674;28;20139;-78
2021/04/03 00:39:09;;;;;;;44.47;4.95;;;5.00;84.00;;;;;;5042221;28;20112;-77
2021/04/03 00:41:35;;;;;;;40.13;5.45;;;4.90;84.30;;;;;;5059183;28;20048;-79
2021/04/03 00:44:00;;;;;;;30.27;4.43;;;4.90;84.20;;;;;;5055786;28;20029;-83
2021/04/03 00:46:26;;;;;;;35.90;5.13;;;4.80;84.50;;;;;;5045117;28;20063;-78
2021/04/03 00:48:52;;;;;;;36.08;5.25;;;4.80;84.60;;;;;;5063126;28;20033;-76
2021/04/03 00:51:18;;;;;;;35.90;4.28;;;4.70;84.90;;;;;;5056734;28;20243;-78
2021/04/03 00:53:44;;;;;;;38.55;5.93;;;4.70;85.10;;;;;;5042067;28;20029;-77
2021/04/03 00:56:10;;;;;;;41.53;5.28;;;4.70;85.20;;;;;;5056796;28;20032;-80
2021/04/03 00:58:36;;;;;;;36.10;5.28;;;4.60;85.20;;;;;;5054887;28;20418;-77
2021/04/03 01:01:04;;;;;;;37.45;4.38;;;4.60;85.30;;;;;;5054899;28;20167;-79
2021/04/03 01:03:31;;;;;;;37.65;5.32;;;4.60;85.50;;;;;;5058865;28;20068;-82
2021/04/03 01:05:57;;;;;;;36.15;4.80;;;4.50;85.60;;;;;;5055634;28;20033;-78
2021/04/03 01:08:23;;;;;;;35.95;4.95;;;4.40;85.70;;;;;;5023443;28;20048;-82
2021/04/03 01:10:52;;;;;;;39.05;5.72;;;4.40;86.00;;;;;;5041835;28;20139;-78
2021/04/03 01:13:59;;;;;;;38.25;5.88;;;4.30;86.00;;;;;;5056855;28;20032;-82
2021/04/03 01:16:48;;;;;;;36.25;5.22;;;4.30;86.20;;;;;;5055361;28;20044;-78
2021/04/03 01:19:14;;;;;;;44.53;5.00;;;4.30;86.40;;;;;;5060342;28;20028;-78
2021/04/03 01:22:14;;;;;;;45.80;5.40;;;4.20;86.50;;;;;;5036835;28;20223;-79
2021/04/03 01:25:19;;;;;;;37.83;4.90;;;4.20;86.80;;;;;;5057364;28;20533;-79
2021/04/03 01:27:57;;;;;;;36.28;5.65;;;4.20;87.00;;;;;;5036255;28;20056;-80
2021/04/03 01:30:25;;;;;;;43.60;5.63;;;4.20;87.10;;;;;;5058551;28;20375;-77
2021/04/03 01:33:08;;;;;;;42.08;5.60;;;4.20;87.30;;;;;;5054242;28;20033;-76
2021/04/03 01:35:40;;;;;;;37.03;4.60;;;4.30;87.60;;;;;;5053655;28;20098;-79
2021/04/03 01:38:10;;;;;;;45.30;5.45;;;4.30;87.40;;;;;;5072537;28;20037;-80
2021/04/03 01:40:38;;;;;;;35.25;5.55;;;4.30;87.50;;;;;;5058082;28;20063;-82
2021/04/03 01:43:19;;;;;;;42.25;5.35;;;4.40;87.70;;;;;;5055247;28;20486;-82
2021/04/03 01:45:47;;;;;;;45.00;6.07;;;4.50;87.80;;;;;;5057009;28;20029;-79
2021/04/03 01:48:16;;;;;;;46.40;5.88;;;4.50;87.80;;;;;;5056221;28;20040;-81
2021/04/03 01:50:44;;;;;;;40.10;4.93;;;4.50;87.80;;;;;;5057920;28;20198;-77
2021/04/03 01:53:10;;;;;;;43.17;5.90;;;4.50;87.80;;;;;;5056667;28;20036;-77
2021/04/03 01:55:37;;;;;;;44.03;6.00;;;4.50;87.80;;;;;;5056799;28;20074;-76
2021/04/03 01:58:04;;;;;;;50.03;5.63;;;4.50;87.90;;;;;;5057826;28;20111;-82
2021/04/03 02:00:32;;;;;;;53.30;6.57;;;4.50;88.30;;;;;;5042924;28;20036;-76
2021/04/03 02:02:58;;;;;;;42.95;6.18;;;4.50;88.30;;;;;;5060939;28;20024;-82
2021/04/03 02:05:25;;;;;;;40.60;5.45;;;4.50;88.30;;;;;;5056776;28;20037;-80
2021/04/03 02:07:53;;;;;;;42.42;5.65;;;4.50;88.30;;;;;;5056447;28;20474;-78
2021/04/03 02:10:25;;;;;;;46.63;5.45;;;4.50;88.70;;;;;;5056712;28;20236;-77
2021/04/03 02:12:51;;;;;;;;;;;4.50;88.50;;;;;;5054946;28;20048;-78
2021/04/03 02:15:19;;;;;;;38.08;5.35;;;4.60;89.00;;;;;;5042354;28;19924;-76
2021/04/03 02:17:48;;;;;;;51.65;5.78;;;4.60;88.50;;;;;;5025861;28;20682;-80
2021/04/03 02:20:14;;;;;;;39.00;5.72;;;4.60;88.50;;;;;;5057255;28;20497;-76
2021/04/03 02:22:42;;;;;;;58.33;6.20;;;4.60;88.60;;;;;;5056559;28;20055;-77
2021/04/03 02:25:14;;;;;;;50.55;6.70;;;4.70;89.00;;;;;;5056969;28;20499;-79
2021/04/03 02:27:41;;;;;;;46.75;6.22;;;4.80;89.30;;;;;;5056258;28;20040;-80
2021/04/03 02:30:17;;;;;;;45.70;6.07;;;4.80;88.90;;;;;;5040061;28;20049;-82
2021/04/03 02:32:50;;;;;;;49.90;7.18;;;4.80;89.10;;;;;;5055936;28;20135;-77
2021/04/03 02:35:18;;;;;;;51.90;6.57;;;4.90;89.30;;;;;;5058007;28;20518;-77
2021/04/03 02:37:46;;;;;;;45.22;6.88;;;4.90;89.20;;;;;;5059271;28;20041;-79
2021/04/03 02:40:16;;;;;;;60.08;7.47;;;5.00;89.30;;;;;;5061600;28;20043;-81
2021/04/03 02:43:01;;;;;;;50.38;6.70;;;5.00;90.00;;;;;;5063067;28;20120;-77
2021/04/03 02:45:31;;;;;;;54.78;8.68;;;5.00;89.60;;;;;;5060223;28;20064;-76
2021/04/03 02:48:02;;;;;;;49.80;6.72;;;5.00;89.50;;;;;;5058155;28;20048;-80
2021/04/03 02:50:39;;;;;;;63.88;8.35;;;5.10;89.70;;;;;;5063041;28;20585;-76
2021/04/03 02:53:08;;;;;;;51.03;7.88;;;5.10;89.80;;;;;;5059946;28;20318;-79
2021/04/03 02:55:37;;;;;;;58.03;7.10;;;5.10;89.90;;;;;;5062565;28;20028;-78
2021/04/03 02:58:09;;;;;;;56.08;7.18;;;5.20;90.00;;;;;;5061256;28;20051;-77
2021/04/03 03:00:36;;;;;;;65.53;7.75;;;5.20;90.00;;;;;;5042279;28;20347;-77
2021/04/03 03:03:04;;;;;;;54.00;6.65;;;5.20;90.00;;;;;;5059107;28;20054;-77
2021/04/03 03:05:32;;;;;;;63.05;7.05;;;5.20;90.00;;;;;;5040617;28;20064;-77
2021/04/03 03:08:00;;;;;;;60.60;8.20;;;5.20;90.00;;;;;;5058275;28;20055;-77
2021/04/03 03:10:28;;;;;;;53.35;7.25;;;5.30;90.00;;;;;;5057073;28;20085;-77
2021/04/03 03:12:56;;;;;;;65.82;8.55;;;5.30;90.10;;;;;;5055625;28;20033;-77
2021/04/03 03:15:27;;;;;;;51.17;7.18;;;5.30;90.20;;;;;;5056141;28;20089;-77
2021/04/03 03:17:55;;;;;;;55.92;7.28;;;5.30;90.20;;;;;;5056925;28;20039;-77
2021/04/03 03:20:21;;;;;;;70.50;7.45;;;5.40;90.20;;;;;;5060216;28;20438;-77
2021/04/03 03:22:48;;;;;;;49.20;6.28;;;5.30;90.20;;;;;;5040605;28;20039;-77
2021/04/03 03:25:14;;;;;;;49.38;7.75;;;5.40;90.30;;;;;;5060579;28;20377;-77
2021/04/03 03:27:43;;;;;;;66.20;9.73;;;5.40;90.20;;;;;;5058946;28;20037;-77
2021/04/03 03:30:10;;;;;;;59.38;7.13;;;5.30;90.30;;;;;;5057806;28;20409;-77
2021/04/03 03:32:36;;;;;;;51.90;7.68;;;5.30;90.30;;;;;;5056747;28;20127;-77
2021/04/03 03:35:04;;;;;;;60.20;7.20;;;5.30;90.40;;;;;;5060396;28;20032;-77
2021/04/03 03:37:31;;;;;;;57.13;7.95;;;5.30;90.40;;;;;;5056440;28;20084;-77
2021/04/03 03:39:58;;;;;;;65.18;7.60;;;5.30;90.40;;;;;;5043066;28;20033;-77
2021/04/03 03:42:24;;;;;;;68.32;8.32;;;5.30;90.50;;;;;;5058799;28;20141;-77
2021/04/03 03:44:51;;;;;;;64.63;7.60;;;5.40;90.40;;;;;;5044588;28;20025;-77
2021/04/03 03:47:18;;;;;;;43.38;6.63;;;5.30;90.50;;;;;;5057443;28;20039;-77
2021/04/03 03:49:44;;;;;;;60.75;8.02;;;5.30;90.50;;;;;;5041134;28;20039;-77
2021/04/03 03:52:10;;;;;;;61.63;8.30;;;5.30;90.60;;;;;;5056644;28;20040;-78
2021/04/03 03:54:36;;;;;;;45.53;6.70;;;5.30;90.60;;;;;;5041963;28;20066;-77
2021/04/03 03:57:03;;;;;;;57.83;8.68;;;5.20;90.50;;;;;;5058039;28;20071;-77
2021/04/03 03:59:30;;;;;;;50.55;7.53;;;5.20;90.40;;;;;;5059379;28;20378;-77
2021/04/03 04:01:56;;;;;;;46.25;6.65;;;5.20;90.40;;;;;;5058330;28;20040;-77
2021/04/03 04:04:22;;;;;;;52.80;8.90;;;5.20;90.50;;;;;;5041465;28;20056;-77
2021/04/03 04:06:48;;;;;;;43.63;6.30;;;5.10;90.40;;;;;;5038147;28;20036;-77
2021/04/03 04:09:14;;;;;;;42.30;6.68;;;5.10;90.50;;;;;;5041838;28;20106;-77
2021/04/03 04:11:41;;;;;;;57.03;7.10;;;5.00;90.50;;;;;;5038387;28;20072;-77
2021/04/03 04:14:07;;;;;;;51.67;7.43;;;5.00;90.60;;;;;;5059043;28;20041;-77
2021/04/03 04:16:32;;;;;;;54.20;7.68;;;5.00;90.50;;;;;;5025466;28;20040;-77
2021/04/03 04:18:58;;;;;;;52.78;7.18;;;4.90;90.60;;;;;;5056369;28;20041;-77
2021/04/03 04:21:25;;;;;;;68.95;8.57;;;4.90;90.90;;;;;;5058096;28;20077;-77
2021/04/03 04:23:51;;;;;;;52.78;6.97;;;4.80;90.60;;;;;;5057532;28;22198;-77
2021/04/03 04:26:17;;;;;;;58.30;7.15;;;4.80;90.80;;;;;;5059427;28;20063;-77
2021/04/03 04:28:43;;;;;;;65.18;8.10;;;4.80;90.70;;;;;;5056527;28;20455;-77
2021/04/03 04:31:10;;;;;;;42.55;7.00;;;4.80;90.80;;;;;;5040315;28;20123;-77
2021/04/03 04:33:36;;;;;;;60.72;7.47;;;4.70;90.80;;;;;;5055339;28;20075;-77
2021/04/03 04:36:02;;;;;;;58.35;7.72;;;4.70;91.20;;;;;;5052487;28;20300;-77
2021/04/03 04:38:28;;;;;;;54.92;7.03;;;4.70;90.90;;;;;;5056855;28;20036;-77
2021/04/03 04:40:54;;;;;;;49.55;7.03;;;4.70;90.90;;;;;;5053801;28;20042;-77
2021/04/03 04:43:21;;;;;;;48.85;6.55;;;4.70;90.90;;;;;;5040115;28;20034;-77
2021/04/03 04:45:47;;;;;;;47.97;6.30;;;4.80;91.00;;;;;;5058365;28;20036;-77
2021/04/03 04:48:13;;;;;;;60.15;8.77;;;4.80;91.00;;;;;;5041359;28;20075;-77
2021/04/03 04:50:39;;;;;;;54.08;7.45;;;4.80;91.10;;;;;;5049935;28;20128;-77
2021/04/03 04:53:08;;;;;;;62.20;7.47;;;4.90;91.00;;;;;;5038639;28;20059;-77
2021/04/03 04:55:35;;;;;;;66.15;8.38;;;4.90;91.00;;;;;;5041396;28;20462;-77
2021/04/03 04:58:01;;;;;;;58.50;7.63;;;4.90;91.00;;;;;;5055980;28;20039;-77
2021/04/03 05:00:47;;;;;;;48.33;7.05;;;4.90;91.00;;;;;;5030830;28;20040;-77
2021/04/03 05:03:15;;;;;;;55.55;7.30;;;4.90;91.00;;;;;;5057100;28;20032;-77
2021/04/03 05:05:41;;;;;;;59.33;8.10;;;5.00;91.10;;;;;;5058120;28;20336;-77
2021/04/03 05:08:07;;;;;;;52.65;7.22;;;5.00;91.10;;;;;;5037848;28;20437;-77
2021/04/03 05:10:33;;;;;;;45.55;7.03;;;5.00;91.00;;;;;;5057808;28;20470;-77
2021/04/03 05:13:00;;;;;;;67.15;9.15;;;5.00;91.00;;;;;;5056211;28;20033;-77
2021/04/03 05:15:26;;;;;;;50.15;7.03;;;5.10;91.00;;;;;;5057411;28;20465;-77
2021/04/03 05:17:52;;;;;;;57.53;7.63;;;5.20;91.00;;;;;;5056760;28;20060;-77
2021/04/03 05:20:18;;;;;;;63.67;8.02;;;5.20;91.00;;;;;;5037792;28;20822;-77
2021/04/03 05:22:44;;;;;;;60.28;8.35;;;5.20;91.00;;;;;;5054416;28;20402;-77
2021/04/03 05:25:14;;;;;;;46.15;7.63;;;5.30;91.00;;;;;;5026008;28;20040;-77
2021/04/03 05:27:41;;;;;;;55.90;7.88;;;5.30;91.00;;;;;;5055859;28;21487;-76
2021/04/03 05:30:08;;;;;;;51.45;7.30;;;5.30;91.00;;;;;;5056330;28;20033;-77
2021/04/03 05:32:35;;;;;;;66.57;8.05;;;5.40;90.90;;;;;;5060564;28;20032;-77
2021/04/03 05:35:01;;;;;;;68.30;7.85;;;5.40;90.90;;;;;;5059884;28;20483;-76
2021/04/03 05:37:28;;;;;;;43.80;6.97;;;5.40;90.90;;;;;;5055278;28;20029;-77
2021/04/03 05:39:54;;;;;;;64.95;7.85;;;5.50;91.00;;;;;;5058069;28;20071;-77
2021/04/03 05:42:20;;;;;;;53.20;7.18;;;5.50;90.90;;;;;;5044141;28;20487;-77
2021/04/03 05:44:47;;;;;;;54.85;6.88;;;5.50;91.30;;;;;;5062790;28;20105;-77
2021/04/03 05:47:13;;;;;;;55.35;7.70;;;5.60;90.90;;;;;;5061984;28;20044;-77
2021/04/03 05:49:40;;;;;;;58.92;7.03;;;5.60;91.00;;;;;;5043377;28;20483;-77
2021/04/03 05:52:06;;;;;;;54.00;7.78;;;5.60;91.00;;;;;;5055692;28;20762;-77
2021/04/03 05:54:37;;;;;;;61.78;8.27;;;5.70;90.90;;;;;;5056973;28;20032;-77
2021/04/03 05:57:04;;;;;;;57.92;8.32;;;5.70;90.90;;;;;;5055908;28;20033;-76
2021/04/03 05:59:30;;;;;;;51.17;7.00;;;5.70;90.90;;;;;;5033913;28;20925;-76
2021/04/03 06:01:56;;;;;;;52.28;7.25;;;5.80;90.90;;;;;;5039048;28;20232;-77
2021/04/03 06:04:22;;;;;;;49.13;6.75;;;5.80;90.80;;;;;;5029036;28;20720;-76
2021/04/03 06:06:48;;;;;;;53.28;7.85;;;5.90;90.90;;;;;;5060534;28;20521;-77
2021/04/03 06:09:14;;;;;;;60.15;8.73;;;5.90;90.80;;;;;;5032139;28;20115;-77
2021/04/03 06:11:48;;;;;;;59.80;7.88;;;6.00;90.70;;;;;;5056569;28;20127;-77
2021/04/03 06:14:15;;;;;;;51.33;7.95;;;6.00;90.70;;;;;;5046171;28;20217;-77
2021/04/03 06:16:43;;;;;;;56.08;7.90;;;6.00;90.70;;;;;;5060795;28;20083;-77
2021/04/03 06:19:13;;;;;;;57.03;8.43;;;6.00;90.60;;;;;;5061283;28;20466;-77
2021/04/03 06:21:41;;;;;;;47.05;8.07;;;6.10;90.60;;;;;;5060837;28;20036;-77
2021/04/03 06:24:31;;;;;;;55.88;8.20;;;6.10;90.60;;;;;;5060765;28;20025;-78
2021/04/03 06:27:10;;;;;;;53.42;7.60;;;6.20;90.60;;;;;;5043845;28;20072;-77
2021/04/03 06:29:49;;;;;;;62.22;9.32;;;6.20;90.50;;;;;;5056507;28;20399;-77
2021/04/03 06:32:30;;;;;;;51.10;8.02;;;6.30;90.50;;;;;;5034062;28;20052;-77
2021/04/03 06:34:57;;;;;;;54.15;8.23;;;6.30;90.40;;;;;;5037842;28;20380;-77
2021/04/03 06:37:34;;;;;;;63.53;9.23;;;6.30;90.30;;;;;;5067271;28;20033;-77
2021/04/03 06:40:11;;;;;;;55.10;7.88;;;6.40;90.40;;;;;;5063460;28;20052;-77
2021/04/03 06:42:55;;;;;;;56.97;8.80;;;6.40;90.30;;;;;;5051601;28;20039;-77
2021/04/03 06:45:28;;;;;;;49.63;8.55;;;6.50;90.20;;;;;;5054393;28;20044;-77
2021/04/03 06:48:06;;;;;;;47.63;7.60;;;6.60;90.20;;;;;;5056117;28;20033;-77
2021/04/03 06:50:41;;;;;;;49.20;8.35;;;6.70;90.20;;;;;;5038609;28;20127;-77
2021/04/03 06:53:09;;;;;;;51.75;7.50;;;6.80;90.20;;;;;;5055306;28;20491;-78
2021/04/03 06:55:35;;;;;;;59.85;8.40;;;6.80;90.00;;;;;;5058822;28;20041;-83
2021/04/03 06:58:04;;;;;;;60.80;8.25;;;6.90;90.00;;;;;;5060583;28;20110;-77
2021/04/03 07:00:31;;;;;;;56.42;8.43;;;6.90;90.00;;;;;;5045598;28;20028;-77
2021/04/03 07:03:02;;;;;;;53.72;7.75;;;7.00;90.00;;;;;;5060873;28;20041;-78
2021/04/03 07:05:32;;;;;;;62.42;9.32;;;7.00;90.00;;;;;;5061394;28;20040;-77
2021/04/03 07:08:01;;;;;;;62.45;9.73;;;7.10;89.80;;;;;;5061241;28;20368;-77
2021/04/03 07:10:30;;;;;;;55.95;7.97;;;7.20;89.70;;;;;;5042489;28;20067;-77
2021/04/03 07:12:57;;;;;;;49.65;7.95;;;7.30;89.30;;;;;;5055673;28;20040;-77
2021/04/03 07:15:23;;;;;;;46.33;7.40;;;7.30;89.00;;;;;;5041670;28;20044;-77
2021/04/03 07:17:50;;;;;;;65.25;9.07;;;7.40;88.90;;;;;;5057683;28;20352;-77
2021/04/03 07:20:19;;;;;;;50.28;7.25;;;7.40;88.90;;;;;;5041998;28;20378;-77
2021/04/03 07:22:52;;;;;;;57.90;8.82;;;7.40;88.20;;;;;;5060681;28;20043;-77
2021/04/03 07:25:21;;;;;;;54.35;7.20;;;7.40;88.30;;;;;;5063883;28;20758;-77
2021/04/03 07:27:48;;;;;;;51.20;7.88;;;7.40;87.70;;;;;;5055867;28;20037;-77
2021/04/03 07:30:38;;;;;;;52.42;8.15;;;7.50;87.80;;;;;;5056196;28;20040;-77
2021/04/03 07:33:15;;;;;;;58.35;7.97;;;7.50;87.30;;;;;;5063888;28;20033;-77
2021/04/03 07:36:00;;;;;;;53.38;8.15;;;7.50;87.50;;;;;;5063576;28;20048;-78
2021/04/03 07:38:30;;;;;;;47.67;7.70;;;7.60;87.30;;;;;;5060707;28;20100;-80
2021/04/03 07:41:02;;;;;;;54.58;8.30;;;7.70;87.10;;;;;;5061476;28;20032;-77
2021/04/03 07:43:43;;;;;;;48.58;8.82;;;7.70;86.80;;;;;;5061321;28;20529;-79
2021/04/03 07:46:13;;;;;;;52.38;8.80;;;7.80;86.50;;;;;;5060608;28;20044;-79
2021/04/03 07:48:55;;;;;;;48.17;7.57;;;7.80;86.20;;;;;;5054932;28;20040;-79
2021/04/03 07:51:24;;;;;;;47.95;8.05;;;7.80;86.20;;;;;;4998669;28;22377;-80
2021/04/03 07:53:52;;;;;;;49.25;7.82;;;7.90;86.40;;;;;;5070739;28;20155;-80
2021/04/03 07:56:22;;;;;;;45.85;7.18;;;7.90;86.30;;;;;;5080785;28;20092;-80
2021/04/03 07:58:53;;;;;;;49.17;7.85;;;8.00;86.20;;;;;;5079500;28;20032;-80
2021/04/03 08:01:21;;;;;;;46.08;7.28;;;8.10;85.90;;;;;;5082625;28;20032;-76
2021/04/03 08:04:04;;;;;;;43.53;7.22;;;8.10;85.20;;;;;;5107224;28;20084;-76
2021/04/03 08:06:32;;;;;;;52.45;8.07;;;8.10;84.90;;;;;;5107665;28;20040;-75
2021/04/03 08:09:00;;;;;;;46.63;7.88;;;8.10;84.90;;;;;;5087092;28;20110;-80
2021/04/03 08:11:27;;;;;;;45.83;6.95;;;8.20;85.10;;;;;;5092855;28;20052;-76
2021/04/03 08:13:55;;;;;;;43.95;7.95;;;8.30;84.90;;;;;;5088410;28;20063;-79
2021/04/03 08:16:22;;;;;;;40.03;6.55;;;8.30;84.20;;;;;;5073689;28;20111;-81
2021/04/03 08:18:51;;;;;;;47.60;8.55;;;8.40;83.70;;;;;;5082843;28;20024;-79
2021/04/03 08:21:18;;;;;;;48.83;7.38;;;8.30;83.50;;;;;;5089461;28;20043;-80
2021/04/03 08:23:49;;;;;;;47.15;7.13;;;8.40;83.70;;;;;;5053804;28;20041;-77
2021/04/03 08:26:17;;;;;;;47.15;7.00;;;8.40;83.70;;;;;;5090291;28;20043;-74
2021/04/03 08:28:44;;;;;;;43.67;7.25;;;8.50;83.70;;;;;;5089232;28;20035;-78
2021/04/03 08:31:19;;;;;;;53.47;7.30;;;8.60;83.10;;;;;;5052283;28;20478;-77
2021/04/03 08:33:47;;;;;;;41.45;6.93;;;8.60;82.30;;;;;;5069530;28;20097;-75
2021/04/03 08:36:25;;;;;;;47.05;7.32;;;8.60;82.30;;;;;;5089434;28;20058;-77
2021/04/03 08:38:52;;;;;;;43.83;7.10;;;8.60;82.20;;;;;;5086886;28;20032;-76
2021/04/03 08:41:20;;;;;;;35.33;6.85;;;8.60;82.00;;;;;;5072537;28;20024;-78
2021/04/03 08:43:46;;;;;;;43.08;7.30;;;8.60;81.30;;;;;;5088867;28;20040;-79
2021/04/03 08:46:16;;;;;;;42.72;7.25;;;8.60;81.30;;;;;;5050538;28;20066;-78
2021/04/03 08:48:43;;;;;;;45.72;7.47;;;8.70;81.20;;;;;;5082070;28;20529;-76
2021/04/03 08:51:11;;;;;;;40.25;6.10;;;8.80;81.00;;;;;;5062879;28;20071;-78
2021/04/03 08:53:55;;;;;;;36.63;5.93;;;8.90;81.00;;;;;;5072566;28;20116;-78
2021/04/03 08:56:30;;;;;;;42.63;6.55;;;9.00;80.00;;;;;;5080981;28;20088;-79
2021/04/03 08:58:58;;;;;;;48.55;7.05;;;9.00;79.30;;;;;;5077862;28;20075;-77
2021/04/03 09:01:26;;;;;;;48.28;7.43;;;9.10;79.20;;;;;;5085774;28;20372;-78
2021/04/03 09:03:57;;;;;;;45.85;7.60;;;9.10;79.20;;;;;;5083517;28;20039;-79
2021/04/03 09:06:59;;;;;;;52.10;7.43;;;9.30;78.80;;;;;;5056928;28;20470;-81
2021/04/03 09:09:28;;;;;;;43.40;6.35;;;9.30;79.10;;;;;;4973497;28;20084;-79
2021/04/03 09:12:00;;;;;;;39.10;6.18;;;9.40;78.50;;;;;;5036919;28;20133;-78
2021/04/03 09:14:36;;;;;;;37.30;6.73;;;9.50;78.20;;;;;;5083550;28;20066;-77
2021/04/03 09:17:20;;;;;;;43.83;6.80;;;9.60;77.40;;;;;;5081792;28;20047;-77
2021/04/03 09:19:47;;;;;;;44.67;5.93;;;9.50;76.90;;;;;;5062579;28;20067;-79
2021/04/03 09:22:16;;;;;;;38.38;6.05;;;9.50;77.00;;;;;;5067062;28;20631;-78
2021/04/03 09:24:57;;;;;;;35.50;6.13;;;9.60;76.40;;;;;;5098000;28;20043;-78
2021/04/03 09:27:25;;;;;;;41.90;5.80;;;9.60;76.40;;;;;;5085882;28;20028;-79
2021/04/03 09:30:04;;;;;;;35.00;5.18;;;9.70;76.10;;;;;;5085606;28;20028;-79
2021/04/03 09:32:43;;;;;;;36.83;5.03;;;9.80;75.70;;;;;;5084890;28;20343;-78
2021/04/03 09:35:12;;;;;;;43.72;6.22;;;9.80;74.00;;;;;;5083586;28;20042;-79
2021/04/03 09:37:41;;;;;;;30.80;5.30;;;9.90;74.00;;;;;;5074900;28;20119;-80
2021/04/03 09:40:08;;;;;;;31.58;5.65;;;10.00;73.80;;;;;;5073585;28;20137;-79
2021/04/03 09:42:35;;;;;;;37.95;5.75;;;10.10;73.10;;;;;;5068557;28;21286;-79
2021/04/03 09:45:05;;;;;;;32.80;5.57;;;10.20;72.50;;;;;;5061896;28;20024;-79
2021/04/03 09:47:31;;;;;;;29.23;4.80;;;10.30;71.40;;;;;;5058680;28;20515;-77
2021/04/03 09:49:57;;;;;;;35.42;5.93;;;10.30;71.80;;;;;;5063617;28;20609;-80
2021/04/03 09:52:25;;;;;;;28.60;5.55;;;10.40;71.90;;;;;;5082135;28;20119;-80
2021/04/03 09:54:51;;;;;;;31.90;5.50;;;10.50;71.10;;;;;;5081441;28;20027;-81
2021/04/03 09:57:17;;;;;;;34.08;5.80;;;10.60;71.40;;;;;;5021975;28;20423;-80
2021/04/03 09:59:43;;;;;;;32.38;5.55;;;10.70;71.30;;;;;;5046879;28;20055;-81
2021/04/03 10:02:11;;;;;;;26.30;4.93;;;10.70;70.60;;;;;;5065284;28;20271;-81
2021/04/03 10:04:38;;;;;;;32.88;5.45;;;10.60;70.30;;;;;;5084064;28;20072;-81
2021/04/03 10:07:04;;;;;;;32.92;5.88;;;10.50;70.40;;;;;;5062809;28;20543;-80
2021/04/03 10:09:30;;;;;;;35.30;6.38;;;10.50;70.00;;;;;;5081466;28;20035;-81
2021/04/03 10:11:57;;;;;;;31.33;5.22;;;10.50;70.70;;;;;;5053127;28;20040;-81
2021/04/03 10:14:23;;;;;;;28.83;5.78;;;10.60;71.20;;;;;;5054128;28;20040;-81
2021/04/03 10:16:49;;;;;;;38.78;6.10;;;10.70;70.80;;;;;;5077393;28;20095;-80
2021/04/03 10:19:15;;;;;;;25.63;4.55;;;10.70;70.10;;;;;;5091637;28;20052;-79
2021/04/03 10:21:43;;;;;;;33.45;5.72;;;10.70;70.20;;;;;;5087479;28;20113;-83
2021/04/03 10:24:12;;;;;;;30.52;5.85;;;10.70;70.00;;;;;;5080188;28;20035;-84
2021/04/03 10:26:38;;;;;;;37.85;6.45;;;10.80;69.90;;;;;;5028430;28;20044;-82
2021/04/03 10:29:04;;;;;;;39.28;6.43;;;10.90;70.20;;;;;;5064947;28;20414;-86
2021/04/03 10:31:30;;;;;;;30.52;5.30;;;11.00;69.80;;;;;;5071667;28;20036;-84
2021/04/03 10:33:57;;;;;;;31.45;5.35;;;11.00;69.30;;;;;;5069699;28;20380;-85
2021/04/03 10:36:23;;;;;;;32.15;5.47;;;10.90;68.30;;;;;;5077285;28;20045;-85
2021/04/03 10:38:48;;;;;;;28.73;5.18;;;10.90;68.80;;;;;;5043044;28;20097;-84
2021/04/03 10:41:18;;;;;;;23.20;5.40;;;10.90;68.30;;;;;;5047603;28;20053;-86
2021/04/03 10:43:43;;;;;;;34.38;5.18;;;10.90;67.90;;;;;;5065716;28;20461;-86
2021/04/03 10:46:10;;;;;;;38.72;5.82;;;11.00;68.50;;;;;;5030019;28;20089;-86
2021/04/03 10:48:36;;;;;;;38.30;6.10;;;11.10;68.70;;;;;;5065008;28;20051;-82
2021/04/03 10:51:06;;;;;;;32.25;4.95;;;11.10;68.10;;;;;;5079306;28;21027;-85
2021/04/03 10:53:32;;;;;;;28.60;5.57;;;11.30;68.40;;;;;;5085200;28;20043;-84
2021/04/03 10:55:58;;;;;;;31.25;5.45;;;11.40;67.70;;;;;;5050321;28;20382;-83
2021/04/03 10:58:24;;;;;;;28.00;4.78;;;11.50;67.20;;;;;;5080590;28;20028;-84
2021/04/03 11:00:50;;;;;;;32.40;5.65;;;11.50;67.20;;;;;;5068232;28;20025;-83
2021/04/03 11:03:15;;;;;;;29.88;5.60;;;11.50;67.10;;;;;;5049924;28;20036;-83
2021/04/03 11:05:42;;;;;;;27.33;5.18;;;11.60;67.30;;;;;;5066839;28;20044;-83
2021/04/03 11:08:08;;;;;;;29.33;5.40;;;11.60;67.10;;;;;;5050040;28;20070;-83
2021/04/03 11:10:34;;;;;;;30.40;4.80;;;11.70;66.30;;;;;;5068274;28;20315;-82
2021/04/03 11:12:59;;;;;;;25.40;4.78;;;11.60;66.30;;;;;;5049779;28;20032;-84
2021/04/03 11:15:26;;;;;;;26.98;4.35;;;11.60;66.30;;;;;;5047810;28;20078;-84
2021/04/03 11:17:52;;;;;;;24.95;4.40;;;11.60;65.90;;;;;;5058934;28;20075;-83
2021/04/03 11:20:19;;;;;;;24.92;4.32;;;11.50;64.80;;;;;;5051426;28;20082;-84
2021/04/03 11:22:45;;;;;;;31.02;5.05;;;11.60;65.10;;;;;;5080743;28;20032;-84
2021/04/03 11:25:12;;;;;;;33.50;4.80;;;11.70;65.70;;;;;;5083260;28;20561;-84
2021/04/03 11:27:41;;;;;;;38.38;5.72;;;11.80;65.60;;;;;;5052498;28;20087;-76
2021/04/03 11:30:14;;;;;;;27.13;5.15;;;11.90;64.00;;;;;;5081334;28;20031;-78
2021/04/03 11:32:45;;;;;;;28.85;5.18;;;11.80;64.10;;;;;;5085069;28;20032;-78
2021/04/03 11:35:12;;;;;;;27.08;5.85;;;11.90;64.40;;;;;;5083045;28;20048;-79
2021/04/03 11:37:38;;;;;;;32.97;5.13;;;12.10;64.90;;;;;;5084874;28;20100;-76
2021/04/03 11:40:06;;;;;;;26.33;5.03;;;12.30;64.40;;;;;;5063807;28;20498;-75
2021/04/03 11:42:33;;;;;;;29.83;4.50;;;12.40;63.60;;;;;;5083401;28;20059;-76
2021/04/03 11:45:01;;;;;;;24.48;4.80;;;12.30;62.60;;;;;;5065688;28;20517;-73
2021/04/03 11:47:28;;;;;;;29.38;4.57;;;12.40;62.20;;;;;;5083963;28;20028;-77
2021/04/03 11:49:59;;;;;;;28.05;4.70;;;12.50;62.40;;;;;;5083853;28;20456;-79
2021/04/03 11:52:25;;;;;;;22.50;3.97;;;12.50;61.80;;;;;;5084287;28;20032;-82
2021/04/03 11:54:52;;;;;;;25.45;4.32;;;12.50;60.40;;;;;;5071069;28;20308;-80
2021/04/03 11:57:18;;;;;;;27.45;4.45;;;12.40;60.40;;;;;;5061239;28;20039;-81
2021/04/03 11:59:45;;;;;;;23.00;4.15;;;12.30;60.70;;;;;;5063573;28;20043;-81
2021/04/03 12:02:11;;;;;;;26.92;5.10;;;12.20;60.40;;;;;;5049338;28;20637;-76
2021/04/03 12:04:37;;;;;;;34.45;5.15;;;12.10;60.90;;;;;;5084961;28;20039;-77
2021/04/03 12:07:07;;;;;;;22.67;4.57;;;12.20;61.20;;;;;;5078133;28;20444;-78
2021/04/03 12:09:33;;;;;;;24.73;5.03;;;12.40;60.60;;;;;;5062746;28;20055;-77
2021/04/03 12:12:00;;;;;;;24.80;4.20;;;12.70;60.70;;;;;;5079941;28;20033;-79
2021/04/03 12:14:25;;;;;;;19.10;4.00;;;12.90;58.20;;;;;;5081419;28;20036;-78
2021/04/03 12:16:52;;;;;;;19.23;4.30;;;12.80;56.90;;;;;;5074197;28;20032;-79
2021/04/03 12:19:19;;;;;;;26.67;4.75;;;12.60;57.40;;;;;;5051785;28;20491;-78
2021/04/03 12:21:45;;;;;;;24.90;4.53;;;12.60;58.70;;;;;;5063228;28;20875;-78
2021/04/03 12:24:12;;;;;;;22.73;4.20;;;12.70;58.20;;;;;;5050233;28;20435;-78
2021/04/03 12:26:37;;;;;;;23.67;4.03;;;12.70;58.20;;;;;;5058216;28;20048;-79
2021/04/03 12:29:04;;;;;;;24.73;3.95;;;12.50;57.70;;;;;;5051008;28;20054;-78
2021/04/03 12:31:30;;;;;;;22.60;4.30;;;12.50;58.20;;;;;;5063124;28;20028;-78
2021/04/03 12:33:56;;;;;;;23.10;4.53;;;12.50;58.60;;;;;;5061412;28;20034;-78
2021/04/03 12:36:22;;;;;;;19.80;4.10;;;12.50;58.70;;;;;;5071673;28;20082;-77
2021/04/03 12:38:48;;;;;;;25.65;5.40;;;12.60;59.00;;;;;;5078666;28;20028;-79
2021/04/03 12:41:14;;;;;;;20.33;4.38;;;12.70;58.90;;;;;;5065348;28;20032;-78
2021/04/03 12:43:40;;;;;;;26.48;4.32;;;12.90;58.80;;;;;;5077503;28;20069;-79
2021/04/03 12:46:05;;;;;;;18.48;3.78;;;12.80;57.90;;;;;;5064230;28;20079;-79
2021/04/03 12:48:32;;;;;;;23.02;3.80;;;12.70;57.30;;;;;;5077056;28;20040;-80
2021/04/03 12:50:59;;;;;;;24.50;4.28;;;12.40;58.30;;;;;;5079183;28;20813;-76
2021/04/03 12:53:26;;;;;;;28.17;4.63;;;12.30;57.80;;;;;;5079128;28;20031;-77